Time;durP1;ratioP1;P1;durP2;ratioP2;P2;SDS_P1;SDS_P2;PMS_P1;PMS_P2;Temp;Humidity;BMP_temperature;BMP_pressure;BME280_temperature;BME280_humidity;BME280_pressure;Samples;Min_cycle;Max_cycle;Signal;HPM_P1;HPM_P2
2024/03/30 00:01:42;;;;;;;5.50;3.20;;;;;;;27.37;24.98;100653.66;106116;1264;71263;-83
2024/03/30 00:04:08;;;;;;;6.20;2.90;;;;;;;27.37;24.89;100650.50;106175;1264;69977;-83
2024/03/30 00:06:33;;;;;;;7.70;3.00;;;;;;;27.37;24.86;100652.67;106119;1264;70009;-83
2024/03/30 00:08:59;;;;;;;8.90;3.40;;;;;;;27.38;24.97;100656.27;106010;1265;70049;-83
2024/03/30 00:11:24;;;;;;;6.30;3.30;;;;;;;27.39;24.96;100655.11;106056;1267;70027;-83
2024/03/30 00:13:50;;;;;;;6.30;3.30;;;;;;;27.39;24.95;100651.44;106076;1267;70056;-83
2024/03/30 00:16:15;;;;;;;7.10;3.20;;;;;;;27.39;25.01;100651.74;106216;1263;70007;-83
2024/03/30 00:18:43;;;;;;;5.20;3.30;;;;;;;27.39;24.93;100654.69;106192;1265;70127;-83
2024/03/30 00:21:15;;;;;;;8.50;3.50;;;;;;;27.39;24.94;100657.58;106150;1267;70141;-89
2024/03/30 00:23:40;;;;;;;7.10;3.80;;;;;;;27.39;24.96;100654.59;106019;1265;70086;-83
2024/03/30 00:26:06;;;;;;;6.10;3.40;;;;;;;27.40;25.00;100658.50;106073;1264;69927;-83
2024/03/30 00:28:31;;;;;;;7.80;3.60;;;;;;;27.40;24.98;100657.41;105987;1264;70016;-83
2024/03/30 00:30:57;;;;;;;7.40;4.20;;;;;;;27.40;24.96;100658.23;105878;1264;71229;-83
2024/03/30 00:33:22;;;;;;;7.50;4.40;;;;;;;27.41;25.08;100655.02;106018;1264;70407;-83
2024/03/30 00:35:48;;;;;;;7.30;3.80;;;;;;;27.41;25.01;100657.14;106055;1264;69988;-83
2024/03/30 00:38:14;;;;;;;8.30;4.30;;;;;;;27.41;25.13;100655.63;106086;1266;70363;-83
2024/03/30 00:40:39;;;;;;;8.30;4.10;;;;;;;27.41;25.01;100653.77;106126;1264;70049;-83
2024/03/30 00:43:06;;;;;;;8.60;4.70;;;;;;;27.41;25.02;100654.76;106132;1263;69995;-83
2024/03/30 00:45:31;;;;;;;9.80;4.60;;;;;;;27.41;25.15;100653.20;106244;1265;69952;-83
2024/03/30 00:47:59;;;;;;;8.70;4.40;;;;;;;27.41;24.96;100651.49;106099;1264;70148;-86
2024/03/30 00:50:33;;;;;;;8.10;4.70;;;;;;;27.41;25.08;100651.04;106154;1264;69948;-83
2024/03/30 00:52:59;;;;;;;8.40;4.70;;;;;;;27.41;25.18;100648.70;105918;1264;70018;-82
2024/03/30 00:55:24;;;;;;;9.00;5.00;;;;;;;27.41;25.17;100648.28;106014;1267;71229;-83
2024/03/30 00:57:50;;;;;;;6.60;4.20;;;;;;;27.42;25.11;100645.89;106078;1265;70535;-83
2024/03/30 01:00:16;;;;;;;10.50;4.90;;;;;;;27.42;25.15;100643.36;106070;1264;69935;-83
2024/03/30 01:02:42;;;;;;;8.10;4.70;;;;;;;27.42;25.13;100641.61;106103;1264;70112;-83
2024/03/30 01:05:08;;;;;;;8.70;5.10;;;;;;;27.42;25.18;100640.37;106003;1264;69990;-83
2024/03/30 01:07:34;;;;;;;9.70;4.90;;;;;;;27.42;25.15;100636.39;105932;1264;70003;-83
2024/03/30 01:09:59;;;;;;;9.00;4.70;;;;;;;27.42;25.06;100635.86;105919;1266;69963;-83
2024/03/30 01:12:25;;;;;;;8.80;4.70;;;;;;;27.43;24.94;100634.61;105980;1266;69984;-83
2024/03/30 01:14:56;;;;;;;10.90;5.60;;;;;;;27.42;25.05;100632.88;106099;1266;70023;-85
2024/03/30 01:17:21;;;;;;;7.50;5.20;;;;;;;27.42;25.10;100632.45;106012;1267;69905;-83
2024/03/30 01:19:47;;;;;;;11.80;5.00;;;;;;;27.42;25.11;100631.94;106070;1264;70517;-83
2024/03/30 01:22:13;;;;;;;9.20;5.70;;;;;;;27.43;25.14;100630.37;106043;1264;70355;-83
2024/03/30 01:24:39;;;;;;;9.40;5.00;;;;;;;27.43;25.11;100626.85;106084;1264;70013;-83
2024/03/30 01:27:25;;;;;;;10.50;5.20;;;;;;;27.43;25.06;100623.29;105881;1264;69950;-84
2024/03/30 01:29:52;;;;;;;11.40;5.20;;;;;;;27.43;25.20;100620.04;106076;1264;69893;-88
2024/03/30 01:32:18;;;;;;;9.00;4.80;;;;;;;27.43;25.22;100620.08;105988;1264;69831;-83
2024/03/30 01:34:44;;;;;;;8.80;5.00;;;;;;;27.43;25.18;100617.77;106069;1264;70852;-82
2024/03/30 01:37:09;;;;;;;10.40;5.30;;;;;;;27.44;25.09;100620.54;106106;1264;70386;-83
2024/03/30 01:39:35;;;;;;;8.20;5.10;;;;;;;27.44;25.14;100618.30;106083;1266;70052;-83
2024/03/30 01:42:00;;;;;;;9.70;5.40;;;;;;;27.44;25.11;100620.00;106214;1264;70023;-83
2024/03/30 01:44:26;;;;;;;10.20;5.50;;;;;;;27.44;25.15;100620.00;106005;1267;75190;-83
2024/03/30 01:46:51;;;;;;;8.40;4.80;;;;;;;27.45;25.18;100624.77;106116;1264;69987;-82
2024/03/30 01:49:17;;;;;;;12.30;5.30;;;;;;;27.44;25.13;100628.98;105938;1264;70023;-83
2024/03/30 01:51:44;;;;;;;10.10;5.60;;;;;;;27.44;25.11;100631.11;105989;1266;69962;-83
2024/03/30 01:54:09;;;;;;;8.80;5.10;;;;;;;27.44;25.17;100632.66;106094;1264;69913;-83
2024/03/30 01:56:35;;;;;;;9.00;5.00;;;;;;;27.45;25.15;100633.73;105925;1265;70016;-82
2024/03/30 01:59:01;;;;;;;7.80;4.90;;;;;;;27.44;25.16;100634.66;106059;1264;69929;-83
2024/03/30 02:01:26;;;;;;;8.70;4.70;;;;;;;27.45;25.16;100633.42;106164;1264;69995;-83
2024/03/30 02:03:52;;;;;;;7.60;5.20;;;;;;;27.46;25.19;100635.36;105992;1264;70252;-83
2024/03/30 02:06:18;;;;;;;9.90;5.60;;;;;;;27.46;25.22;100637.07;105981;1264;70087;-83
2024/03/30 02:11:24;;;;;;;12.00;5.10;;;;;;;27.45;25.08;100638.02;106162;1267;69996;-82
2024/03/30 02:13:50;;;;;;;8.00;5.00;;;;;;;27.45;25.16;100640.59;106050;1267;70015;-83
2024/03/30 02:16:18;;;;;;;11.20;5.10;;;;;;;27.46;25.24;100646.15;106008;1263;70015;-83
2024/03/30 02:18:44;;;;;;;9.50;5.50;;;;;;;27.46;25.14;100642.34;106131;1265;74255;-83
2024/03/30 02:21:09;;;;;;;10.80;5.00;;;;;;;27.48;25.06;100642.33;106014;1264;70062;-83
2024/03/30 02:23:35;;;;;;;9.90;5.40;;;;;;;27.47;25.18;100645.11;105926;1264;70125;-82
2024/03/30 02:26:00;;;;;;;12.00;5.50;;;;;;;27.47;25.27;100647.27;106084;1264;69987;-82
2024/03/30 02:28:29;;;;;;;10.10;5.20;;;;;;;27.47;25.18;100645.54;106129;1264;69998;-83
2024/03/30 02:30:55;;;;;;;10.80;5.10;;;;;;;27.46;25.08;100646.38;106063;1267;69895;-83
2024/03/30 02:33:21;;;;;;;9.10;4.70;;;;;;;27.46;25.19;100645.64;105959;1268;69978;-83
2024/03/30 02:35:47;;;;;;;10.20;5.20;;;;;;;27.46;25.14;100646.95;106063;1265;70820;-89
2024/03/30 02:38:13;;;;;;;9.00;5.10;;;;;;;27.48;24.96;100651.02;105954;1270;70098;-83
2024/03/30 02:40:55;;;;;;;11.70;5.10;;;;;;;27.48;25.08;100649.86;106139;1265;70024;-83
2024/03/30 02:43:20;;;;;;;8.80;5.50;;;;;;;27.48;25.12;100652.18;107443;1265;69944;-83
2024/03/30 02:45:46;;;;;;;9.40;5.60;;;;;;;27.48;25.17;100655.63;106175;1266;71168;-83
2024/03/30 02:48:14;;;;;;;9.90;5.80;;;;;;;27.48;25.16;100653.20;106186;1264;69928;-83
2024/03/30 02:50:49;;;;;;;9.10;5.60;;;;;;;27.48;25.01;100655.23;106137;1265;69892;-88
2024/03/30 02:53:14;;;;;;;9.60;5.40;;;;;;;27.49;25.16;100655.38;106027;1268;74994;-83
2024/03/30 02:55:40;;;;;;;7.60;5.00;;;;;;;27.49;25.09;100659.18;106119;1265;70023;-83
2024/03/30 02:58:05;;;;;;;9.60;5.50;;;;;;;27.49;25.19;100660.27;106108;1268;70116;-83
2024/03/30 03:00:31;;;;;;;10.70;5.40;;;;;;;27.50;25.19;100665.01;106029;1265;71149;-83
2024/03/30 03:02:56;;;;;;;11.60;5.70;;;;;;;27.50;25.20;100661.03;105973;1265;69906;-83
2024/03/30 03:05:22;;;;;;;8.90;5.50;;;;;;;27.50;25.19;100662.17;105855;1266;69914;-83
2024/03/30 03:07:47;;;;;;;8.00;5.00;;;;;;;27.50;25.09;100662.73;105895;1265;69933;-82
2024/03/30 03:10:13;;;;;;;8.90;5.70;;;;;;;27.50;25.04;100667.22;105973;1265;69997;-82
2024/03/30 03:12:38;;;;;;;9.30;5.30;;;;;;;27.50;25.11;100660.77;105933;1266;69995;-83
2024/03/30 03:15:04;;;;;;;8.70;5.30;;;;;;;27.50;25.06;100661.64;105784;1265;69954;-83
2024/03/30 03:17:38;;;;;;;9.40;5.60;;;;;;;27.50;25.11;100663.62;105824;1268;70132;-88
2024/03/30 03:20:05;;;;;;;8.60;5.10;;;;;;;27.49;25.18;100664.14;105992;1268;69906;-83
2024/03/30 03:22:33;;;;;;;9.20;5.00;;;;;;;27.50;25.06;100664.17;106138;1265;69898;-82
2024/03/30 03:25:00;;;;;;;8.80;5.10;;;;;;;27.50;25.09;100664.75;106044;1265;75022;-83
2024/03/30 03:27:25;;;;;;;7.30;5.00;;;;;;;27.50;25.14;100671.00;106029;1267;70005;-83
2024/03/30 03:29:51;;;;;;;8.90;5.20;;;;;;;27.50;25.04;100674.82;106017;1265;70034;-83
2024/03/30 03:32:16;;;;;;;9.50;4.80;;;;;;;27.50;24.96;100680.70;106031;1265;70014;-83
2024/03/30 03:34:42;;;;;;;10.90;5.00;;;;;;;27.50;25.16;100679.00;105944;1265;70019;-82
2024/03/30 03:37:07;;;;;;;9.20;4.90;;;;;;;27.50;25.06;100678.60;105986;1265;70030;-83
2024/03/30 03:39:33;;;;;;;10.90;5.20;;;;;;;27.51;25.04;100678.63;105911;1266;69979;-83
2024/03/30 03:41:58;;;;;;;8.80;5.10;;;;;;;27.51;25.04;100681.05;106000;1265;70019;-83
2024/03/30 03:47:04;;;;;;;8.80;4.70;;;;;;;27.51;25.04;100682.38;106425;1267;74246;-83
2024/03/30 03:49:29;;;;;;;10.20;4.50;;;;;;;27.51;25.00;100684.77;106360;1263;70131;-83
2024/03/30 03:51:56;;;;;;;8.90;5.20;;;;;;;27.51;25.02;100684.20;106415;1266;69958;-83
2024/03/30 03:54:22;;;;;;;8.20;4.80;;;;;;;27.51;25.13;100686.05;106439;1262;69921;-83
2024/03/30 03:56:48;;;;;;;8.40;4.70;;;;;;;27.51;25.03;100688.33;106453;1262;69929;-83
2024/03/30 03:59:13;;;;;;;9.70;4.80;;;;;;;27.51;25.06;100688.60;106365;1265;69896;-83
2024/03/30 04:01:38;;;;;;;9.50;4.90;;;;;;;27.52;25.16;100686.98;106348;1264;69963;-82
2024/03/30 04:04:04;;;;;;;11.30;4.60;;;;;;;27.52;25.15;100685.98;106427;1264;69961;-83
2024/03/30 04:06:30;;;;;;;9.40;4.70;;;;;;;27.52;25.17;100694.11;106385;1263;71284;-83
2024/03/30 04:08:56;;;;;;;7.50;4.70;;;;;;;27.52;25.03;100689.03;106431;1262;70011;-83
2024/03/30 04:11:22;;;;;;;8.70;4.90;;;;;;;27.52;24.97;100692.18;106366;1264;70401;-89
2024/03/30 04:13:48;;;;;;;8.10;4.90;;;;;;;27.52;24.89;100694.72;106040;1264;70003;-83
2024/03/30 04:16:13;;;;;;;8.70;4.30;;;;;;;27.52;25.03;100697.72;106423;1262;71206;-82
2024/03/30 04:18:39;;;;;;;8.40;4.40;;;;;;;27.52;24.99;100695.44;106367;1264;70000;-83
2024/03/30 04:21:05;;;;;;;6.20;4.00;;;;;;;27.53;25.04;100690.77;106251;1263;70019;-83
2024/03/30 04:23:31;;;;;;;8.20;4.60;;;;;;;27.52;25.03;100686.76;106109;1264;70119;-83
2024/03/30 04:26:08;;;;;;;9.40;4.80;;;;;;;27.52;25.02;100689.70;106105;1263;69927;-83
2024/03/30 04:28:33;;;;;;;9.60;4.40;;;;;;;27.52;25.08;100694.93;106154;1263;74229;-83
2024/03/30 04:31:00;;;;;;;7.50;4.90;;;;;;;27.52;25.03;100696.64;106077;1263;69984;-83
2024/03/30 04:33:25;;;;;;;8.40;4.50;;;;;;;27.52;25.13;100696.84;106063;1264;70017;-83
2024/03/30 04:35:55;;;;;;;9.10;4.50;;;;;;;27.52;25.00;100692.44;105933;1264;70023;-83
2024/03/30 04:38:21;;;;;;;7.60;5.10;;;;;;;27.52;25.02;100691.67;105940;1264;69923;-88
2024/03/30 04:41:01;;;;;;;9.00;4.50;;;;;;;27.52;25.10;100687.58;105848;1264;69974;-83
2024/03/30 04:43:27;;;;;;;8.70;5.00;;;;;;;27.52;24.99;100687.54;105954;1264;69977;-83
2024/03/30 04:45:53;;;;;;;9.20;4.80;;;;;;;27.52;25.05;100684.29;105889;1264;70668;-83
2024/03/30 04:48:19;;;;;;;10.00;4.50;;;;;;;27.52;25.15;100686.60;105910;1264;69998;-83
2024/03/30 04:50:44;;;;;;;8.70;4.40;;;;;;;27.52;25.07;100685.20;105866;1264;70023;-83
2024/03/30 04:53:15;;;;;;;11.10;5.00;;;;;;;27.53;25.06;100678.69;105805;1264;70023;-89
2024/03/30 04:55:41;;;;;;;7.30;4.40;;;;;;;27.53;24.97;100678.58;105791;1264;71698;-83
2024/03/30 04:58:07;;;;;;;7.80;4.40;;;;;;;27.53;25.07;100679.86;105893;1264;70392;-83
2024/03/30 05:00:35;;;;;;;8.20;4.70;;;;;;;27.54;25.20;100683.63;105957;1264;69996;-83
2024/03/30 05:03:02;;;;;;;9.90;5.20;;;;;;;27.53;25.17;100683.89;105851;1264;69896;-83
2024/03/30 05:05:28;;;;;;;9.40;4.90;;;;;;;27.54;25.07;100685.52;105920;1264;70670;-84
2024/03/30 05:07:53;;;;;;;8.90;4.80;;;;;;;27.54;24.99;100682.73;105853;1264;70094;-83
2024/03/30 05:10:19;;;;;;;9.30;4.40;;;;;;;27.54;25.13;100683.56;105880;1263;69926;-83
2024/03/30 05:12:44;;;;;;;10.30;4.70;;;;;;;27.55;25.03;100679.05;105918;1264;70264;-83
2024/03/30 05:15:10;;;;;;;9.20;4.80;;;;;;;27.55;24.99;100680.95;105775;1264;70411;-83
2024/03/30 05:17:35;;;;;;;8.60;4.90;;;;;;;27.55;25.04;100676.14;105996;1267;70548;-83
2024/03/30 05:22:45;;;;;;;10.10;5.00;;;;;;;27.55;25.03;100678.68;105911;1267;69997;-83
2024/03/30 05:25:10;;;;;;;10.20;4.80;;;;;;;27.56;25.00;100679.60;105895;1264;69901;-83
2024/03/30 05:27:36;;;;;;;10.30;4.60;;;;;;;27.56;25.12;100679.52;106147;1264;69953;-83
2024/03/30 05:30:02;;;;;;;7.30;4.60;;;;;;;27.57;25.01;100679.60;105873;1264;70010;-83
2024/03/30 05:32:28;;;;;;;10.90;5.10;;;;;;;27.58;25.04;100681.77;105784;1264;70017;-83
2024/03/30 05:34:54;;;;;;;12.40;5.60;;;;;;;27.59;25.08;100675.75;105847;1264;70013;-83
2024/03/30 05:37:19;;;;;;;8.80;4.80;;;;;;;27.59;24.93;100675.06;106130;1264;70011;-83
2024/03/30 05:39:45;;;;;;;11.70;5.20;;;;;;;27.61;24.99;100677.28;105969;1264;70029;-83
2024/03/30 05:42:12;;;;;;;9.70;5.40;;;;;;;27.63;25.04;100674.56;106021;1264;70052;-83
2024/03/30 05:44:37;;;;;;;8.80;4.70;;;;;;;27.63;24.99;100671.81;106011;1264;70023;-83
2024/03/30 05:47:03;;;;;;;10.60;5.10;;;;;;;27.65;24.93;100675.09;105911;1263;69956;-83
2024/03/30 05:49:28;;;;;;;10.80;4.60;;;;;;;27.66;24.95;100673.92;105990;1265;70011;-83
2024/03/30 05:51:54;;;;;;;7.80;4.80;;;;;;;27.68;24.96;100675.16;105917;1264;69834;-83
2024/03/30 05:54:19;;;;;;;11.60;5.20;;;;;;;27.70;24.98;100674.17;105734;1264;70014;-83
2024/03/30 05:56:48;;;;;;;9.50;5.20;;;;;;;27.71;24.97;100674.30;105778;1264;70016;-83
2024/03/30 05:59:13;;;;;;;9.40;5.20;;;;;;;27.72;24.95;100671.84;105836;1266;69893;-83
2024/03/30 06:01:39;;;;;;;10.70;5.50;;;;;;;27.73;24.94;100671.83;105885;1264;70043;-83
2024/03/30 06:04:04;;;;;;;8.80;4.90;;;;;;;27.74;24.83;100667.65;105912;1264;69994;-83
2024/03/30 06:06:30;;;;;;;9.60;4.80;;;;;;;27.76;24.85;100670.25;105959;1264;69965;-83
2024/03/30 06:08:55;;;;;;;11.40;5.10;;;;;;;27.78;24.88;100670.73;106056;1264;75173;-83
2024/03/30 06:11:21;;;;;;;7.90;4.90;;;;;;;27.80;24.93;100671.30;106432;1264;70046;-84
2024/03/30 06:16:29;;;;;;;8.90;4.80;;;;;;;27.82;24.90;100668.01;106009;1264;69845;-83
2024/03/30 06:18:54;;;;;;;8.00;4.90;;;;;;;27.84;24.90;100665.30;105810;1267;70339;-83
2024/03/30 06:21:20;;;;;;;9.20;5.00;;;;;;;27.85;24.88;100661.45;105781;1268;69959;-84
2024/03/30 06:23:45;;;;;;;9.00;4.70;;;;;;;27.85;24.81;100662.63;105846;1270;70536;-84
2024/03/30 06:26:11;;;;;;;7.80;4.60;;;;;;;27.85;24.80;100662.48;105959;1267;69924;-84
2024/03/30 06:28:36;;;;;;;7.70;4.70;;;;;;;27.85;24.84;100662.92;105839;1269;70021;-83
2024/03/30 06:31:02;;;;;;;10.00;4.80;;;;;;;27.87;24.83;100666.77;105907;1267;71885;-84
2024/03/30 06:33:28;;;;;;;8.60;4.60;;;;;;;27.89;24.85;100667.52;105852;1265;70004;-83
2024/03/30 06:35:54;;;;;;;7.80;4.70;;;;;;;27.91;24.76;100668.86;105777;1267;69794;-84
2024/03/30 06:38:20;;;;;;;9.40;5.10;;;;;;;27.93;24.79;100667.75;105809;1270;70123;-84
2024/03/30 06:43:42;;;;;;;10.20;5.00;;;;;;;27.94;24.79;100669.73;105765;1265;71049;-84
2024/03/30 06:46:10;;;;;;;10.00;4.70;;;;;;;27.91;24.78;100668.36;105885;1267;70373;-84
2024/03/30 06:48:35;;;;;;;14.20;5.30;;;;;;;27.84;24.61;100671.07;105868;1267;70779;-84
2024/03/30 06:51:01;;;;;;;11.50;5.40;;;;;;;27.73;24.59;100679.62;105844;1270;69915;-84
2024/03/30 06:53:26;;;;;;;9.00;5.20;;;;;;;27.66;24.54;100678.89;105728;1269;70194;-84
2024/03/30 06:55:52;;;;;;;13.40;5.80;;;;;;;27.57;24.56;100674.17;105816;1266;71361;-84
2024/03/30 06:58:18;;;;;;;10.10;6.00;;;;;;;27.50;24.51;100674.55;105790;1267;70057;-84
2024/03/30 07:00:44;;;;;;;9.30;5.30;;;;;;;27.42;24.47;100675.80;105888;1267;70007;-84
2024/03/30 07:03:09;;;;;;;19.90;5.20;;;;;;;27.35;24.43;100672.23;105851;1269;70406;-84
2024/03/30 07:05:35;;;;;;;11.60;4.90;;;;;;;27.28;24.50;100674.67;105732;1267;71016;-84
2024/03/30 07:08:01;;;;;;;10.60;4.50;;;;;;;27.22;24.58;100669.60;105811;1265;70146;-84
2024/03/30 07:10:26;;;;;;;11.40;5.00;;;;;;;27.17;24.54;100673.39;106030;1270;70030;-84
2024/03/30 07:12:54;;;;;;;10.40;4.30;;;;;;;27.14;24.53;100671.29;105847;1266;70027;-84
2024/03/30 07:15:20;;;;;;;11.40;5.10;;;;;;;27.09;24.49;100671.55;105977;1266;69893;-84
2024/03/30 07:17:46;;;;;;;12.30;6.10;;;;;;;27.04;24.58;100671.61;105853;1270;69966;-84
2024/03/30 07:20:12;;;;;;;10.30;5.50;;;;;;;27.00;24.51;100669.17;105689;1270;334097;-84
2024/03/30 07:22:39;;;;;;;13.70;5.00;;;;;;;26.96;24.65;100667.70;105975;1265;69941;-90
2024/03/30 07:25:06;;;;;;;14.30;5.20;;;;;;;26.95;24.67;100666.66;105920;1270;70020;-83
2024/03/30 07:27:31;;;;;;;9.40;4.50;;;;;;;26.92;24.60;100663.00;105717;1265;70132;-84
2024/03/30 07:29:57;;;;;;;11.10;4.30;;;;;;;26.91;24.70;100663.48;105778;1269;70568;-84
2024/03/30 07:32:22;;;;;;;8.80;4.00;;;;;;;26.90;24.70;100664.79;105827;1267;69963;-84
2024/03/30 07:34:50;;;;;;;11.10;4.00;;;;;;;26.89;24.63;100664.05;105762;1269;74458;-84
2024/03/30 07:37:15;;;;;;;13.90;4.30;;;;;;;26.88;24.57;100665.52;105632;1267;70024;-84
2024/03/30 07:39:41;;;;;;;11.30;4.70;;;;;;;26.87;24.59;100660.01;105796;1265;69959;-84
2024/03/30 07:42:07;;;;;;;15.50;5.00;;;;;;;26.84;24.67;100657.80;105999;1267;69892;-84
2024/03/30 07:44:34;;;;;;;10.90;4.60;;;;;;;26.83;24.78;100657.48;105772;1267;70119;-84
2024/03/30 07:46:59;;;;;;;12.10;3.90;;;;;;;26.81;24.81;100656.77;105715;1265;70011;-84
2024/03/30 07:49:25;;;;;;;12.40;4.40;;;;;;;26.81;24.86;100658.98;105722;1265;70110;-84
2024/03/30 07:51:55;;;;;;;8.60;3.80;;;;;;;26.79;24.80;100657.78;105792;1267;71115;-84
2024/03/30 07:54:20;;;;;;;10.30;4.10;;;;;;;26.78;24.91;100658.67;105802;1269;70009;-84
2024/03/30 07:56:56;;;;;;;13.10;4.00;;;;;;;26.77;24.74;100656.42;106046;1265;70187;-84
2024/03/30 07:59:22;;;;;;;10.70;4.00;;;;;;;26.75;24.91;100651.82;105783;1265;75124;-84
2024/03/30 08:01:48;;;;;;;11.20;3.80;;;;;;;26.73;24.98;100649.52;105740;1267;70037;-84
2024/03/30 08:04:17;;;;;;;10.10;4.20;;;;;;;26.72;25.01;100648.23;105734;1267;70114;-84
2024/03/30 08:06:43;;;;;;;13.30;4.30;;;;;;;26.70;24.97;100647.33;105870;1270;70021;-84
2024/03/30 08:09:09;;;;;;;8.20;3.80;;;;;;;26.67;24.78;100646.88;105823;1270;70014;-84
2024/03/30 08:11:35;;;;;;;8.80;3.70;;;;;;;26.66;24.85;100647.02;105803;1269;70117;-84
2024/03/30 08:14:00;;;;;;;9.60;3.40;;;;;;;26.67;24.96;100644.98;105763;1269;69991;-84
2024/03/30 08:16:34;;;;;;;9.80;3.60;;;;;;;26.68;24.96;100644.84;105830;1267;70052;-89
2024/03/30 08:19:02;;;;;;;12.90;3.80;;;;;;;26.68;25.02;100645.61;105811;1265;69935;-84
2024/03/30 08:21:27;;;;;;;9.50;3.80;;;;;;;26.68;24.98;100643.20;105791;1270;69903;-84
2024/03/30 08:23:53;;;;;;;11.20;4.00;;;;;;;26.67;25.13;100645.13;105785;1266;69995;-84
2024/03/30 08:26:19;;;;;;;10.40;3.90;;;;;;;26.65;25.14;100639.48;105721;1267;70010;-84
2024/03/30 08:28:47;;;;;;;9.70;4.20;;;;;;;26.65;24.86;100644.65;105790;1265;70033;-84
2024/03/30 08:31:13;;;;;;;12.70;3.80;;;;;;;26.64;24.97;100645.70;105685;1265;69973;-84
2024/03/30 08:33:39;;;;;;;8.40;4.20;;;;;;;26.63;25.05;100644.64;105720;1269;70052;-84
2024/03/30 08:36:04;;;;;;;11.00;4.10;;;;;;;26.62;25.01;100644.54;105846;1265;70007;-84
2024/03/30 08:38:30;;;;;;;12.00;4.10;;;;;;;26.62;24.97;100645.17;106037;1265;70443;-84
2024/03/30 08:40:55;;;;;;;12.10;4.40;;;;;;;26.62;25.16;100643.59;106066;1265;70008;-84
2024/03/30 08:43:27;;;;;;;10.00;3.50;;;;;;;26.61;25.08;100646.53;106138;1265;70018;-89
2024/03/30 08:45:53;;;;;;;12.00;3.70;;;;;;;26.60;25.10;100645.02;106024;1265;75263;-84
2024/03/30 08:48:19;;;;;;;11.70;4.30;;;;;;;26.60;25.15;100640.33;106032;1265;70657;-84
2024/03/30 08:50:44;;;;;;;10.80;4.40;;;;;;;26.58;25.10;100639.73;106191;1270;68729;-83
2024/03/30 08:53:10;;;;;;;12.60;4.00;;;;;;;26.58;25.39;100639.13;106078;1267;70020;-83
2024/03/30 08:55:36;;;;;;;9.40;3.70;;;;;;;26.56;25.39;100631.72;106079;1265;69939;-83
2024/03/30 08:58:02;;;;;;;9.60;4.00;;;;;;;26.57;25.40;100630.83;105995;1266;69947;-83
2024/03/30 09:00:28;;;;;;;10.10;4.10;;;;;;;26.58;25.45;100629.20;105941;1271;70070;-84
2024/03/30 09:02:54;;;;;;;10.30;4.00;;;;;;;26.60;25.52;100628.96;105790;1269;71138;-85
2024/03/30 09:05:22;;;;;;;9.10;3.60;;;;;;;26.62;25.58;100625.98;105872;1268;69889;-84
2024/03/30 09:07:48;;;;;;;14.20;3.80;;;;;;;26.62;25.56;100625.66;105930;1267;71217;-85
2024/03/30 09:12:54;;;;;;;14.20;4.10;;;;;;;26.63;25.47;100626.00;106183;1264;70278;-84
2024/03/30 09:15:19;;;;;;;6.40;3.60;;;;;;;26.65;25.78;100618.80;106134;1266;69981;-84
2024/03/30 09:17:45;;;;;;;13.90;3.90;;;;;;;26.68;25.77;100617.70;106099;1266;70007;-84
2024/03/30 09:20:11;;;;;;;16.50;4.40;;;;;;;26.68;25.65;100612.95;106185;1267;70024;-84
2024/03/30 09:22:38;;;;;;;7.50;3.50;;;;;;;26.69;25.68;100614.43;106161;1264;70431;-84
2024/03/30 09:25:07;;;;;;;10.30;3.60;;;;;;;26.70;25.57;100616.73;106095;1264;69900;-84
2024/03/30 09:27:35;;;;;;;12.00;4.40;;;;;;;26.74;25.62;100619.17;105867;1264;69894;-84
2024/03/30 09:30:01;;;;;;;14.60;3.80;;;;;;;26.75;25.70;100621.31;106083;1267;70030;-84
2024/03/30 09:32:26;;;;;;;14.80;4.30;;;;;;;26.77;25.49;100623.59;106149;1264;70039;-84
2024/03/30 09:34:52;;;;;;;16.80;4.70;;;;;;;26.77;25.71;100620.20;106065;1264;69984;-84
2024/03/30 09:37:17;;;;;;;12.60;4.00;;;;;;;26.77;25.61;100621.93;106123;1267;70011;-84
2024/03/30 09:39:43;;;;;;;8.50;3.50;;;;;;;26.78;25.56;100619.30;105943;1264;70640;-84
2024/03/30 09:42:16;;;;;;;11.20;3.80;;;;;;;26.80;25.57;100618.44;106059;1264;70010;-84
2024/03/30 09:44:41;;;;;;;10.00;3.40;;;;;;;26.84;25.52;100617.69;106101;1264;69914;-84
2024/03/30 09:47:07;;;;;;;12.00;3.70;;;;;;;26.90;25.59;100620.61;106107;1274;70011;-84
2024/03/30 09:49:33;;;;;;;9.40;3.80;;;;;;;26.98;25.39;100620.42;105892;1269;70129;-82
2024/03/30 09:52:05;;;;;;;7.80;3.80;;;;;;;27.07;25.58;100619.33;105949;1267;70000;-83
2024/03/30 09:54:32;;;;;;;9.30;3.90;;;;;;;27.15;25.59;100617.71;105705;1264;70003;-84
2024/03/30 09:56:59;;;;;;;8.90;3.50;;;;;;;27.23;25.43;100618.40;105912;1264;70061;-84
2024/03/30 09:59:24;;;;;;;7.10;3.60;;;;;;;27.30;25.30;100620.02;106668;1267;69962;-83
2024/03/30 10:01:50;;;;;;;9.90;3.50;;;;;;;27.38;25.35;100618.66;106635;1264;70086;-83
2024/03/30 10:04:16;;;;;;;6.00;3.40;;;;;;;27.45;25.33;100609.40;105979;1264;69943;-84
2024/03/30 10:06:51;;;;;;;10.10;3.30;;;;;;;27.52;25.27;100607.81;106011;1267;69939;-83
2024/03/30 10:09:19;;;;;;;6.90;3.20;;;;;;;27.56;25.29;100607.73;106275;1267;70007;-84
2024/03/30 10:11:44;;;;;;;7.80;3.40;;;;;;;27.62;25.24;100604.63;106316;1271;69830;-83
2024/03/30 10:14:38;;;;;;;9.40;3.70;;;;;;;27.68;25.17;100604.65;105878;1264;70004;-84
2024/03/30 10:17:04;;;;;;;5.40;3.10;;;;;;;27.72;25.23;100603.35;106009;1267;70055;-83
2024/03/30 10:19:30;;;;;;;6.10;3.30;;;;;;;27.77;25.11;100604.17;105998;1267;70017;-83
2024/03/30 10:24:36;;;;;;;8.60;3.30;;;;;;;27.84;25.10;100597.05;105999;1266;70031;-84
2024/03/30 10:27:01;;;;;;;6.50;3.20;;;;;;;27.88;25.07;100596.63;105831;1265;70642;-84
2024/03/30 10:29:27;;;;;;;9.50;3.50;;;;;;;27.92;25.13;100593.59;105831;1266;70033;-84
2024/03/30 10:31:53;;;;;;;5.60;3.20;;;;;;;27.95;25.11;100588.52;105848;1265;70016;-84
2024/03/30 10:34:18;;;;;;;7.20;3.10;;;;;;;27.98;25.01;100580.27;105983;1269;69951;-84
2024/03/30 10:36:46;;;;;;;7.50;3.90;;;;;;;28.01;25.05;100574.90;105762;1265;74417;-83
2024/03/30 10:39:13;;;;;;;5.70;3.30;;;;;;;28.03;25.05;100571.42;105884;1265;69906;-84
2024/03/30 10:41:41;;;;;;;7.20;2.90;;;;;;;28.05;25.07;100565.05;105783;1265;69938;-84
2024/03/30 10:44:06;;;;;;;5.20;3.00;;;;;;;28.08;25.04;100562.33;105745;1269;69975;-84
2024/03/30 10:46:32;;;;;;;5.30;3.30;;;;;;;28.11;25.03;100561.05;105951;1268;70017;-84
2024/03/30 10:48:59;;;;;;;5.50;3.20;;;;;;;28.13;25.10;100555.05;105822;1268;69994;-89
2024/03/30 10:51:26;;;;;;;6.60;3.30;;;;;;;28.16;25.05;100550.52;105796;1265;70015;-83
2024/03/30 10:53:52;;;;;;;5.90;2.80;;;;;;;28.18;25.10;100543.05;106023;1265;69988;-83
2024/03/30 10:56:17;;;;;;;9.40;3.40;;;;;;;28.21;25.06;100535.33;105939;1266;70005;-82
2024/03/30 10:58:43;;;;;;;4.70;2.90;;;;;;;28.23;25.00;100531.33;105753;1271;70853;-85
2024/03/30 11:01:08;;;;;;;5.30;3.20;;;;;;;28.25;25.01;100527.59;105767;1269;70011;-85
2024/03/30 11:03:34;;;;;;;5.20;3.10;;;;;;;28.27;25.08;100526.77;105830;1265;69999;-83
2024/03/30 11:05:59;;;;;;;5.90;2.90;;;;;;;28.29;25.10;100526.81;105776;1265;70210;-84
2024/03/30 11:08:26;;;;;;;6.00;3.50;;;;;;;28.31;25.05;100521.73;105840;1265;70110;-84
2024/03/30 11:10:52;;;;;;;7.10;3.20;;;;;;;28.33;24.94;100520.38;105760;1271;70034;-84
2024/03/30 11:13:17;;;;;;;5.60;3.20;;;;;;;28.34;24.99;100517.38;105703;1265;70043;-84
2024/03/30 11:15:45;;;;;;;5.90;3.40;;;;;;;28.37;24.92;100511.61;105792;1270;70017;-89
2024/03/30 11:18:15;;;;;;;5.40;3.20;;;;;;;28.38;24.92;100508.55;105811;1266;70009;-84
2024/03/30 11:20:45;;;;;;;7.20;3.20;;;;;;;28.40;24.98;100503.06;105857;1271;73947;-84
2024/03/30 11:23:39;;;;;;;4.70;3.20;;;;;;;28.41;24.93;100498.77;105769;1265;70008;-84
2024/03/30 11:26:09;;;;;;;5.20;3.20;;;;;;;28.42;25.01;100495.20;105735;1270;70137;-84
2024/03/30 11:28:54;;;;;;;5.60;3.40;;;;;;;28.45;24.95;100492.89;105945;1265;69960;-84
2024/03/30 11:31:52;;;;;;;4.90;3.10;;;;;;;28.47;25.03;100488.50;105773;1265;70025;-84